sensor_id;sensor_type;location;lat;lon;timestamp;temperature;humidity
9971;DHT22;5026;51.494;11.974;2024-02-26T00:02:02;4.10;99.90
9971;DHT22;5026;51.494;11.974;2024-02-26T00:04:29;4.10;99.90
9971;DHT22;5026;51.494;11.974;2024-02-26T00:06:57;4.00;99.90
9971;DHT22;5026;51.494;11.974;2024-02-26T00:09:24;3.90;99.90
9971;DHT22;5026;51.494;11.974;2024-02-26T00:11:51;3.90;99.90
9971;DHT22;5026;51.494;11.974;2024-02-26T00:14:18;3.80;99.90
9971;DHT22;5026;51.494;11.974;2024-02-26T00:16:45;3.80;99.90
9971;DHT22;5026;51.494;11.974;2024-02-26T00:19:15;3.80;99.90
9971;DHT22;5026;51.494;11.974;2024-02-26T00:21:42;3.70;99.90
9971;DHT22;5026;51.494;11.974;2024-02-26T00:24:10;3.70;99.90
9971;DHT22;5026;51.494;11.974;2024-02-26T00:26:37;3.70;99.90
9971;DHT22;5026;51.494;11.974;2024-02-26T00:29:03;3.60;99.90
9971;DHT22;5026;51.494;11.974;2024-02-26T00:31:30;3.60;99.90
9971;DHT22;5026;51.494;11.974;2024-02-26T00:33:57;3.60;99.90
9971;DHT22;5026;51.494;11.974;2024-02-26T00:36:23;3.60;99.90
9971;DHT22;5026;51.494;11.974;2024-02-26T00:38:50;3.50;99.90
9971;DHT22;5026;51.494;11.974;2024-02-26T00:41:19;3.50;99.90
9971;DHT22;5026;51.494;11.974;2024-02-26T00:43:47;3.50;99.90
9971;DHT22;5026;51.494;11.974;2024-02-26T00:46:13;3.40;99.90
9971;DHT22;5026;51.494;11.974;2024-02-26T00:48:40;3.50;99.90
9971;DHT22;5026;51.494;11.974;2024-02-26T00:51:07;3.50;99.90
9971;DHT22;5026;51.494;11.974;2024-02-26T00:53:34;3.50;99.90
9971;DHT22;5026;51.494;11.974;2024-02-26T00:56:01;3.50;99.90
9971;DHT22;5026;51.494;11.974;2024-02-26T00:58:30;3.50;99.90
9971;DHT22;5026;51.494;11.974;2024-02-26T01:00:56;3.50;99.90
9971;DHT22;5026;51.494;11.974;2024-02-26T01:03:23;3.50;99.90
9971;DHT22;5026;51.494;11.974;2024-02-26T01:05:50;3.40;99.90
9971;DHT22;5026;51.494;11.974;2024-02-26T01:08:17;3.30;99.90
9971;DHT22;5026;51.494;11.974;2024-02-26T01:10:44;3.30;99.90
9971;DHT22;5026;51.494;11.974;2024-02-26T01:13:11;3.30;99.90
9971;DHT22;5026;51.494;11.974;2024-02-26T01:15:40;3.20;99.90
9971;DHT22;5026;51.494;11.974;2024-02-26T01:18:07;3.20;99.90
9971;DHT22;5026;51.494;11.974;2024-02-26T01:20:34;3.40;99.90
9971;DHT22;5026;51.494;11.974;2024-02-26T01:23:01;3.20;99.90
9971;DHT22;5026;51.494;11.974;2024-02-26T01:25:28;3.20;99.90
9971;DHT22;5026;51.494;11.974;2024-02-26T01:27:55;3.30;99.90
9971;DHT22;5026;51.494;11.974;2024-02-26T01:30:21;3.30;99.90
9971;DHT22;5026;51.494;11.974;2024-02-26T01:32:50;3.20;99.90
9971;DHT22;5026;51.494;11.974;2024-02-26T01:35:17;3.20;99.90
9971;DHT22;5026;51.494;11.974;2024-02-26T01:37:44;3.20;99.90
9971;DHT22;5026;51.494;11.974;2024-02-26T01:40:12;3.10;99.90
9971;DHT22;5026;51.494;11.974;2024-02-26T01:42:43;3.00;99.90
9971;DHT22;5026;51.494;11.974;2024-02-26T01:45:14;2.90;99.90
9971;DHT22;5026;51.494;11.974;2024-02-26T01:47:48;2.90;99.90
9971;DHT22;5026;51.494;11.974;2024-02-26T01:50:16;2.90;99.90
9971;DHT22;5026;51.494;11.974;2024-02-26T01:52:43;2.90;99.90
9971;DHT22;5026;51.494;11.974;2024-02-26T01:55:11;2.90;99.90
9971;DHT22;5026;51.494;11.974;2024-02-26T01:57:39;2.80;99.90
9971;DHT22;5026;51.494;11.974;2024-02-26T02:00:07;2.80;99.90
9971;DHT22;5026;51.494;11.974;2024-02-26T02:02:36;2.80;99.90
9971;DHT22;5026;51.494;11.974;2024-02-26T02:05:05;2.80;99.90
9971;DHT22;5026;51.494;11.974;2024-02-26T02:07:34;2.80;99.90
9971;DHT22;5026;51.494;11.974;2024-02-26T02:10:02;2.80;99.90
9971;DHT22;5026;51.494;11.974;2024-02-26T02:12:30;2.80;99.90
9971;DHT22;5026;51.494;11.974;2024-02-26T02:14:58;2.80;99.90
9971;DHT22;5026;51.494;11.974;2024-02-26T02:17:27;2.80;99.90
9971;DHT22;5026;51.494;11.974;2024-02-26T02:19:54;2.80;99.90
9971;DHT22;5026;51.494;11.974;2024-02-26T02:22:22;2.80;99.90
9971;DHT22;5026;51.494;11.974;2024-02-26T02:24:49;2.70;99.90
9971;DHT22;5026;51.494;11.974;2024-02-26T02:27:16;2.70;99.90
9971;DHT22;5026;51.494;11.974;2024-02-26T02:29:43;2.70;99.90
9971;DHT22;5026;51.494;11.974;2024-02-26T02:32:10;2.70;99.90
9971;DHT22;5026;51.494;11.974;2024-02-26T02:34:37;2.60;99.90
9971;DHT22;5026;51.494;11.974;2024-02-26T02:37:04;2.60;99.90
9971;DHT22;5026;51.494;11.974;2024-02-26T02:39:32;2.60;99.90
9971;DHT22;5026;51.494;11.974;2024-02-26T02:41:59;2.80;99.90
9971;DHT22;5026;51.494;11.974;2024-02-26T02:44:26;2.50;99.90
9971;DHT22;5026;51.494;11.974;2024-02-26T02:46:53;2.50;99.90
9971;DHT22;5026;51.494;11.974;2024-02-26T02:49:20;2.50;99.90
9971;DHT22;5026;51.494;11.974;2024-02-26T02:51:49;2.50;99.90
9971;DHT22;5026;51.494;11.974;2024-02-26T02:54:16;2.50;99.90
9971;DHT22;5026;51.494;11.974;2024-02-26T02:56:44;2.50;99.90
9971;DHT22;5026;51.494;11.974;2024-02-26T02:59:11;2.50;99.90
9971;DHT22;5026;51.494;11.974;2024-02-26T03:01:38;2.50;99.90
9971;DHT22;5026;51.494;11.974;2024-02-26T03:04:05;2.50;99.90
9971;DHT22;5026;51.494;11.974;2024-02-26T03:06:31;2.50;99.90
9971;DHT22;5026;51.494;11.974;2024-02-26T03:08:58;2.50;99.90
9971;DHT22;5026;51.494;11.974;2024-02-26T03:11:26;2.50;99.90
9971;DHT22;5026;51.494;11.974;2024-02-26T03:13:54;2.50;99.90
9971;DHT22;5026;51.494;11.974;2024-02-26T03:16:21;2.50;99.90
9971;DHT22;5026;51.494;11.974;2024-02-26T03:18:48;2.50;99.90
9971;DHT22;5026;51.494;11.974;2024-02-26T03:21:15;2.50;99.90
9971;DHT22;5026;51.494;11.974;2024-02-26T03:23:42;2.50;99.90
9971;DHT22;5026;51.494;11.974;2024-02-26T03:26:09;2.50;99.90
9971;DHT22;5026;51.494;11.974;2024-02-26T03:28:39;2.50;99.90
9971;DHT22;5026;51.494;11.974;2024-02-26T03:31:07;2.50;99.90
9971;DHT22;5026;51.494;11.974;2024-02-26T03:33:36;2.40;99.90
9971;DHT22;5026;51.494;11.974;2024-02-26T03:36:03;2.40;99.90
9971;DHT22;5026;51.494;11.974;2024-02-26T03:38:30;2.40;99.90
9971;DHT22;5026;51.494;11.974;2024-02-26T03:40:57;2.30;99.90
9971;DHT22;5026;51.494;11.974;2024-02-26T03:43:24;2.30;99.90
9971;DHT22;5026;51.494;11.974;2024-02-26T03:45:51;2.30;99.90
9971;DHT22;5026;51.494;11.974;2024-02-26T03:48:20;2.20;99.90
9971;DHT22;5026;51.494;11.974;2024-02-26T03:50:46;2.20;99.90
9971;DHT22;5026;51.494;11.974;2024-02-26T03:53:13;2.20;99.90
9971;DHT22;5026;51.494;11.974;2024-02-26T03:55:40;2.20;99.90
9971;DHT22;5026;51.494;11.974;2024-02-26T03:58:08;2.20;99.90
9971;DHT22;5026;51.494;11.974;2024-02-26T04:00:35;2.20;99.90
9971;DHT22;5026;51.494;11.974;2024-02-26T04:03:02;2.20;99.90
9971;DHT22;5026;51.494;11.974;2024-02-26T04:05:30;2.20;99.90
9971;DHT22;5026;51.494;11.974;2024-02-26T04:07:57;2.20;99.90
9971;DHT22;5026;51.494;11.974;2024-02-26T04:10:24;2.20;99.90
9971;DHT22;5026;51.494;11.974;2024-02-26T04:12:51;2.30;99.90
9971;DHT22;5026;51.494;11.974;2024-02-26T04:15:18;2.30;99.90
9971;DHT22;5026;51.494;11.974;2024-02-26T04:17:45;2.20;99.90
9971;DHT22;5026;51.494;11.974;2024-02-26T04:20:14;2.20;99.90
9971;DHT22;5026;51.494;11.974;2024-02-26T04:22:43;2.20;99.90
9971;DHT22;5026;51.494;11.974;2024-02-26T04:25:10;2.20;99.90
9971;DHT22;5026;51.494;11.974;2024-02-26T04:27:36;2.20;99.90
9971;DHT22;5026;51.494;11.974;2024-02-26T04:30:04;2.20;99.90
9971;DHT22;5026;51.494;11.974;2024-02-26T04:32:32;2.20;99.90
9971;DHT22;5026;51.494;11.974;2024-02-26T04:34:59;2.20;99.90
9971;DHT22;5026;51.494;11.974;2024-02-26T04:37:26;2.20;99.90
9971;DHT22;5026;51.494;11.974;2024-02-26T04:39:58;2.20;99.90
9971;DHT22;5026;51.494;11.974;2024-02-26T04:42:25;2.20;99.90
9971;DHT22;5026;51.494;11.974;2024-02-26T04:44:52;2.10;99.90
9971;DHT22;5026;51.494;11.974;2024-02-26T04:47:19;2.10;99.90
9971;DHT22;5026;51.494;11.974;2024-02-26T04:49:47;2.10;99.90
9971;DHT22;5026;51.494;11.974;2024-02-26T04:52:14;2.00;99.90
9971;DHT22;5026;51.494;11.974;2024-02-26T04:54:41;2.00;99.90
9971;DHT22;5026;51.494;11.974;2024-02-26T04:57:09;2.00;99.90
9971;DHT22;5026;51.494;11.974;2024-02-26T04:59:36;2.00;99.90
9971;DHT22;5026;51.494;11.974;2024-02-26T05:02:03;2.00;99.90
9971;DHT22;5026;51.494;11.974;2024-02-26T05:04:30;2.00;99.90
9971;DHT22;5026;51.494;11.974;2024-02-26T05:06:57;2.00;99.90
9971;DHT22;5026;51.494;11.974;2024-02-26T05:09:24;2.00;99.90
9971;DHT22;5026;51.494;11.974;2024-02-26T05:11:51;2.10;99.90
9971;DHT22;5026;51.494;11.974;2024-02-26T05:14:19;2.10;99.90
9971;DHT22;5026;51.494;11.974;2024-02-26T05:16:47;2.10;99.90
9971;DHT22;5026;51.494;11.974;2024-02-26T05:19:14;2.10;99.90
9971;DHT22;5026;51.494;11.974;2024-02-26T05:21:41;2.20;99.90
9971;DHT22;5026;51.494;11.974;2024-02-26T05:24:09;2.30;99.90
9971;DHT22;5026;51.494;11.974;2024-02-26T05:26:36;2.20;99.90
9971;DHT22;5026;51.494;11.974;2024-02-26T05:29:03;2.20;99.90
9971;DHT22;5026;51.494;11.974;2024-02-26T05:31:31;2.20;99.90
9971;DHT22;5026;51.494;11.974;2024-02-26T05:33:58;2.20;99.90
9971;DHT22;5026;51.494;11.974;2024-02-26T05:36:25;2.10;99.90
9971;DHT22;5026;51.494;11.974;2024-02-26T05:38:54;2.00;99.90
9971;DHT22;5026;51.494;11.974;2024-02-26T05:41:21;2.00;99.90
9971;DHT22;5026;51.494;11.974;2024-02-26T05:43:51;2.00;99.90
9971;DHT22;5026;51.494;11.974;2024-02-26T05:46:18;1.90;99.90
9971;DHT22;5026;51.494;11.974;2024-02-26T05:48:48;1.90;99.90
9971;DHT22;5026;51.494;11.974;2024-02-26T05:51:15;1.90;99.90
9971;DHT22;5026;51.494;11.974;2024-02-26T05:53:42;1.90;99.90
9971;DHT22;5026;51.494;11.974;2024-02-26T05:56:09;1.80;99.90
9971;DHT22;5026;51.494;11.974;2024-02-26T05:58:36;1.90;99.90
9971;DHT22;5026;51.494;11.974;2024-02-26T06:01:03;1.90;99.90
9971;DHT22;5026;51.494;11.974;2024-02-26T06:03:30;1.90;99.90
9971;DHT22;5026;51.494;11.974;2024-02-26T06:05:59;2.00;99.90
9971;DHT22;5026;51.494;11.974;2024-02-26T06:08:26;2.00;99.90
9971;DHT22;5026;51.494;11.974;2024-02-26T06:10:53;2.00;99.90
9971;DHT22;5026;51.494;11.974;2024-02-26T06:13:20;2.00;99.90
9971;DHT22;5026;51.494;11.974;2024-02-26T06:15:47;2.10;99.90
9971;DHT22;5026;51.494;11.974;2024-02-26T06:18:14;2.10;99.90
9971;DHT22;5026;51.494;11.974;2024-02-26T06:20:41;2.10;99.90
9971;DHT22;5026;51.494;11.974;2024-02-26T06:23:09;2.20;99.90
9971;DHT22;5026;51.494;11.974;2024-02-26T06:25:36;2.20;99.90
9971;DHT22;5026;51.494;11.974;2024-02-26T06:28:03;2.20;99.90
9971;DHT22;5026;51.494;11.974;2024-02-26T06:30:30;2.20;99.90
9971;DHT22;5026;51.494;11.974;2024-02-26T06:32:57;2.20;99.90
9971;DHT22;5026;51.494;11.974;2024-02-26T06:35:24;2.30;99.90
9971;DHT22;5026;51.494;11.974;2024-02-26T06:37:51;2.30;99.90
9971;DHT22;5026;51.494;11.974;2024-02-26T06:40:20;2.30;99.90
9971;DHT22;5026;51.494;11.974;2024-02-26T06:42:47;2.40;99.90
9971;DHT22;5026;51.494;11.974;2024-02-26T06:45:15;2.40;99.90
9971;DHT22;5026;51.494;11.974;2024-02-26T06:47:42;2.50;99.90
9971;DHT22;5026;51.494;11.974;2024-02-26T06:50:11;2.60;99.90
9971;DHT22;5026;51.494;11.974;2024-02-26T06:52:39;2.60;99.90
9971;DHT22;5026;51.494;11.974;2024-02-26T06:55:06;2.70;99.90
9971;DHT22;5026;51.494;11.974;2024-02-26T06:57:35;2.80;99.90
9971;DHT22;5026;51.494;11.974;2024-02-26T07:00:02;2.90;99.90
9971;DHT22;5026;51.494;11.974;2024-02-26T07:02:30;3.10;99.90
9971;DHT22;5026;51.494;11.974;2024-02-26T07:04:57;3.20;99.90
9971;DHT22;5026;51.494;11.974;2024-02-26T07:07:24;3.30;99.90
9971;DHT22;5026;51.494;11.974;2024-02-26T07:09:51;3.40;99.90
9971;DHT22;5026;51.494;11.974;2024-02-26T07:12:18;3.50;99.90
9971;DHT22;5026;51.494;11.974;2024-02-26T07:14:48;3.60;99.90
9971;DHT22;5026;51.494;11.974;2024-02-26T07:17:15;3.60;99.90
9971;DHT22;5026;51.494;11.974;2024-02-26T07:19:42;3.60;99.90
9971;DHT22;5026;51.494;11.974;2024-02-26T07:22:09;3.70;99.90
9971;DHT22;5026;51.494;11.974;2024-02-26T07:24:36;3.80;99.90
9971;DHT22;5026;51.494;11.974;2024-02-26T07:27:03;3.70;99.90
9971;DHT22;5026;51.494;11.974;2024-02-26T07:29:30;3.80;99.90
9971;DHT22;5026;51.494;11.974;2024-02-26T07:31:59;3.80;99.90
9971;DHT22;5026;51.494;11.974;2024-02-26T07:34:26;3.90;99.90
9971;DHT22;5026;51.494;11.974;2024-02-26T07:36:54;3.90;99.90
9971;DHT22;5026;51.494;11.974;2024-02-26T07:39:21;4.00;99.90
9971;DHT22;5026;51.494;11.974;2024-02-26T07:41:48;4.00;99.90
9971;DHT22;5026;51.494;11.974;2024-02-26T07:44:19;4.10;99.90
9971;DHT22;5026;51.494;11.974;2024-02-26T07:46:46;4.30;99.90
9971;DHT22;5026;51.494;11.974;2024-02-26T07:49:14;4.40;99.90
9971;DHT22;5026;51.494;11.974;2024-02-26T07:51:41;4.40;99.90
9971;DHT22;5026;51.494;11.974;2024-02-26T07:54:08;4.60;99.90
9971;DHT22;5026;51.494;11.974;2024-02-26T07:56:35;4.90;99.90
9971;DHT22;5026;51.494;11.974;2024-02-26T07:59:02;5.20;99.90
9971;DHT22;5026;51.494;11.974;2024-02-26T08:01:29;5.50;99.90
9971;DHT22;5026;51.494;11.974;2024-02-26T08:03:56;5.80;99.90
9971;DHT22;5026;51.494;11.974;2024-02-26T08:06:25;6.30;99.90
9971;DHT22;5026;51.494;11.974;2024-02-26T08:08:52;6.50;99.90
9971;DHT22;5026;51.494;11.974;2024-02-26T08:11:19;6.80;99.90
9971;DHT22;5026;51.494;11.974;2024-02-26T08:13:46;7.00;99.90
9971;DHT22;5026;51.494;11.974;2024-02-26T08:16:13;7.00;99.90
9971;DHT22;5026;51.494;11.974;2024-02-26T08:18:40;6.70;99.90
9971;DHT22;5026;51.494;11.974;2024-02-26T08:21:07;6.60;99.90
9971;DHT22;5026;51.494;11.974;2024-02-26T08:23:37;6.50;99.90
9971;DHT22;5026;51.494;11.974;2024-02-26T08:26:04;6.40;99.90
9971;DHT22;5026;51.494;11.974;2024-02-26T08:28:32;6.40;99.90
9971;DHT22;5026;51.494;11.974;2024-02-26T08:30:59;6.20;99.90
9971;DHT22;5026;51.494;11.974;2024-02-26T08:33:26;6.00;99.90
9971;DHT22;5026;51.494;11.974;2024-02-26T08:35:54;6.00;99.90
9971;DHT22;5026;51.494;11.974;2024-02-26T08:38:21;5.90;99.90
9971;DHT22;5026;51.494;11.974;2024-02-26T08:40:49;6.00;99.90
9971;DHT22;5026;51.494;11.974;2024-02-26T08:43:16;6.20;99.90
9971;DHT22;5026;51.494;11.974;2024-02-26T08:45:44;6.40;99.90
9971;DHT22;5026;51.494;11.974;2024-02-26T08:48:11;6.40;99.90
9971;DHT22;5026;51.494;11.974;2024-02-26T08:50:38;6.50;99.90
9971;DHT22;5026;51.494;11.974;2024-02-26T08:53:04;6.60;99.90
9971;DHT22;5026;51.494;11.974;2024-02-26T08:55:31;6.40;99.90
9971;DHT22;5026;51.494;11.974;2024-02-26T08:58:00;6.40;99.90
9971;DHT22;5026;51.494;11.974;2024-02-26T09:00:27;6.50;99.90
9971;DHT22;5026;51.494;11.974;2024-02-26T09:02:54;6.50;99.90
9971;DHT22;5026;51.494;11.974;2024-02-26T09:05:21;6.60;99.90
9971;DHT22;5026;51.494;11.974;2024-02-26T09:07:48;6.60;99.90
9971;DHT22;5026;51.494;11.974;2024-02-26T09:10:17;6.60;99.90
9971;DHT22;5026;51.494;11.974;2024-02-26T09:12:44;6.70;99.90
9971;DHT22;5026;51.494;11.974;2024-02-26T09:15:13;6.70;99.90
9971;DHT22;5026;51.494;11.974;2024-02-26T09:17:40;6.70;99.90
9971;DHT22;5026;51.494;11.974;2024-02-26T09:20:07;6.80;99.90
9971;DHT22;5026;51.494;11.974;2024-02-26T09:22:35;6.90;99.90
9971;DHT22;5026;51.494;11.974;2024-02-26T09:25:04;6.90;99.90
9971;DHT22;5026;51.494;11.974;2024-02-26T09:27:32;6.90;99.90
9971;DHT22;5026;51.494;11.974;2024-02-26T09:29:58;7.00;99.90
9971;DHT22;5026;51.494;11.974;2024-02-26T09:32:27;7.10;99.90
9971;DHT22;5026;51.494;11.974;2024-02-26T09:34:54;7.10;99.90
9971;DHT22;5026;51.494;11.974;2024-02-26T09:37:21;7.20;99.90
9971;DHT22;5026;51.494;11.974;2024-02-26T09:39:48;7.30;99.90
9971;DHT22;5026;51.494;11.974;2024-02-26T09:42:17;7.50;99.90
9971;DHT22;5026;51.494;11.974;2024-02-26T09:44:45;7.60;99.90
9971;DHT22;5026;51.494;11.974;2024-02-26T09:47:14;7.60;99.90
9971;DHT22;5026;51.494;11.974;2024-02-26T09:49:45;7.70;99.90
9971;DHT22;5026;51.494;11.974;2024-02-26T09:52:13;7.80;99.90
9971;DHT22;5026;51.494;11.974;2024-02-26T09:54:41;8.00;99.90
9971;DHT22;5026;51.494;11.974;2024-02-26T09:57:10;8.20;99.90
9971;DHT22;5026;51.494;11.974;2024-02-26T09:59:42;8.20;99.90
9971;DHT22;5026;51.494;11.974;2024-02-26T10:02:11;8.30;99.90
9971;DHT22;5026;51.494;11.974;2024-02-26T10:04:40;8.40;99.90
9971;DHT22;5026;51.494;11.974;2024-02-26T10:07:11;8.30;99.90
9971;DHT22;5026;51.494;11.974;2024-02-26T10:09:38;8.60;99.90
9971;DHT22;5026;51.494;11.974;2024-02-26T10:12:09;8.40;99.90
9971;DHT22;5026;51.494;11.974;2024-02-26T10:14:37;8.50;99.90
9971;DHT22;5026;51.494;11.974;2024-02-26T10:17:07;8.70;99.90
9971;DHT22;5026;51.494;11.974;2024-02-26T10:19:35;8.80;99.90
9971;DHT22;5026;51.494;11.974;2024-02-26T10:22:02;8.80;99.90
9971;DHT22;5026;51.494;11.974;2024-02-26T10:24:31;8.80;99.90
9971;DHT22;5026;51.494;11.974;2024-02-26T10:27:00;8.90;99.90
9971;DHT22;5026;51.494;11.974;2024-02-26T10:29:26;8.80;99.90
9971;DHT22;5026;51.494;11.974;2024-02-26T10:31:53;8.80;99.90
9971;DHT22;5026;51.494;11.974;2024-02-26T10:34:20;8.60;99.90
9971;DHT22;5026;51.494;11.974;2024-02-26T10:36:48;8.70;99.90
9971;DHT22;5026;51.494;11.974;2024-02-26T10:39:15;8.70;99.90
9971;DHT22;5026;51.494;11.974;2024-02-26T10:41:44;8.80;99.90
9971;DHT22;5026;51.494;11.974;2024-02-26T10:44:12;8.90;99.90
9971;DHT22;5026;51.494;11.974;2024-02-26T10:46:40;8.90;99.90
9971;DHT22;5026;51.494;11.974;2024-02-26T10:49:13;8.80;99.90
9971;DHT22;5026;51.494;11.974;2024-02-26T10:51:44;8.70;99.90
9971;DHT22;5026;51.494;11.974;2024-02-26T10:54:15;8.90;99.90
9971;DHT22;5026;51.494;11.974;2024-02-26T10:56:44;8.90;99.90
9971;DHT22;5026;51.494;11.974;2024-02-26T10:59:13;9.00;99.90
9971;DHT22;5026;51.494;11.974;2024-02-26T11:01:41;8.80;99.90
9971;DHT22;5026;51.494;11.974;2024-02-26T11:04:12;8.80;99.90
9971;DHT22;5026;51.494;11.974;2024-02-26T11:06:40;8.80;99.90
9971;DHT22;5026;51.494;11.974;2024-02-26T11:09:08;8.80;99.90
9971;DHT22;5026;51.494;11.974;2024-02-26T11:11:39;8.70;99.90
9971;DHT22;5026;51.494;11.974;2024-02-26T11:14:09;8.70;99.90
9971;DHT22;5026;51.494;11.974;2024-02-26T11:16:38;8.80;99.90
9971;DHT22;5026;51.494;11.974;2024-02-26T11:19:06;8.90;99.90
9971;DHT22;5026;51.494;11.974;2024-02-26T11:21:35;9.10;99.90
9971;DHT22;5026;51.494;11.974;2024-02-26T11:24:08;9.20;99.90
9971;DHT22;5026;51.494;11.974;2024-02-26T11:26:39;9.20;99.90
9971;DHT22;5026;51.494;11.974;2024-02-26T11:29:09;9.20;99.90
9971;DHT22;5026;51.494;11.974;2024-02-26T11:31:38;9.30;99.90
9971;DHT22;5026;51.494;11.974;2024-02-26T11:34:07;9.60;99.90
9971;DHT22;5026;51.494;11.974;2024-02-26T11:36:34;9.90;99.90
9971;DHT22;5026;51.494;11.974;2024-02-26T11:39:04;9.90;99.90
9971;DHT22;5026;51.494;11.974;2024-02-26T11:41:33;9.80;99.90
9971;DHT22;5026;51.494;11.974;2024-02-26T11:44:05;10.00;99.90
9971;DHT22;5026;51.494;11.974;2024-02-26T11:46:39;9.60;99.90
9971;DHT22;5026;51.494;11.974;2024-02-26T11:49:32;9.70;99.90
9971;DHT22;5026;51.494;11.974;2024-02-26T11:52:00;9.70;99.90
9971;DHT22;5026;51.494;11.974;2024-02-26T11:54:39;9.70;99.90
9971;DHT22;5026;51.494;11.974;2024-02-26T11:57:23;9.80;99.90
9971;DHT22;5026;51.494;11.974;2024-02-26T11:59:51;9.70;99.90
9971;DHT22;5026;51.494;11.974;2024-02-26T12:02:49;9.90;99.90
9971;DHT22;5026;51.494;11.974;2024-02-26T12:05:19;10.00;99.90
9971;DHT22;5026;51.494;11.974;2024-02-26T12:07:53;10.10;99.90
9971;DHT22;5026;51.494;11.974;2024-02-26T12:10:24;10.10;99.90
9971;DHT22;5026;51.494;11.974;2024-02-26T12:12:58;10.10;99.90
9971;DHT22;5026;51.494;11.974;2024-02-26T12:15:31;10.10;99.90
9971;DHT22;5026;51.494;11.974;2024-02-26T12:18:03;10.00;99.90
9971;DHT22;5026;51.494;11.974;2024-02-26T12:20:30;10.10;99.90
9971;DHT22;5026;51.494;11.974;2024-02-26T12:22:59;10.10;99.90
9971;DHT22;5026;51.494;11.974;2024-02-26T12:25:28;10.10;99.90
9971;DHT22;5026;51.494;11.974;2024-02-26T12:27:59;10.10;99.90
9971;DHT22;5026;51.494;11.974;2024-02-26T12:30:27;10.00;99.90
9971;DHT22;5026;51.494;11.974;2024-02-26T12:32:57;10.10;99.90
9971;DHT22;5026;51.494;11.974;2024-02-26T12:35:28;10.10;99.90
9971;DHT22;5026;51.494;11.974;2024-02-26T12:37:57;10.70;99.90
9971;DHT22;5026;51.494;11.974;2024-02-26T12:40:26;10.30;99.90
9971;DHT22;5026;51.494;11.974;2024-02-26T12:42:54;10.60;99.90
9971;DHT22;5026;51.494;11.974;2024-02-26T12:45:21;10.50;99.90
9971;DHT22;5026;51.494;11.974;2024-02-26T12:47:48;10.60;99.90
9971;DHT22;5026;51.494;11.974;2024-02-26T12:50:16;10.50;99.90
9971;DHT22;5026;51.494;11.974;2024-02-26T12:52:45;10.70;99.90
9971;DHT22;5026;51.494;11.974;2024-02-26T12:55:14;10.70;99.90
9971;DHT22;5026;51.494;11.974;2024-02-26T12:57:42;10.60;99.90
9971;DHT22;5026;51.494;11.974;2024-02-26T13:00:13;10.90;99.90
9971;DHT22;5026;51.494;11.974;2024-02-26T13:02:41;11.10;99.90
9971;DHT22;5026;51.494;11.974;2024-02-26T13:05:11;11.20;99.90
9971;DHT22;5026;51.494;11.974;2024-02-26T13:07:41;11.40;99.90
9971;DHT22;5026;51.494;11.974;2024-02-26T13:10:10;11.30;99.90
9971;DHT22;5026;51.494;11.974;2024-02-26T13:12:43;11.40;99.90
9971;DHT22;5026;51.494;11.974;2024-02-26T13:15:15;11.40;99.90
9971;DHT22;5026;51.494;11.974;2024-02-26T13:17:42;11.50;99.90
9971;DHT22;5026;51.494;11.974;2024-02-26T13:20:09;11.50;99.90
9971;DHT22;5026;51.494;11.974;2024-02-26T13:22:37;11.60;99.90
9971;DHT22;5026;51.494;11.974;2024-02-26T13:25:04;11.60;99.90
9971;DHT22;5026;51.494;11.974;2024-02-26T13:27:34;11.40;99.60
9971;DHT22;5026;51.494;11.974;2024-02-26T13:30:08;11.50;99.60
9971;DHT22;5026;51.494;11.974;2024-02-26T13:32:37;11.40;99.50
9971;DHT22;5026;51.494;11.974;2024-02-26T13:35:06;11.40;99.50
9971;DHT22;5026;51.494;11.974;2024-02-26T13:37:36;11.30;99.20
9971;DHT22;5026;51.494;11.974;2024-02-26T13:40:09;11.40;99.50
9971;DHT22;5026;51.494;11.974;2024-02-26T13:42:38;11.50;99.10
9971;DHT22;5026;51.494;11.974;2024-02-26T13:45:06;11.40;99.00
9971;DHT22;5026;51.494;11.974;2024-02-26T13:47:37;11.40;99.20
9971;DHT22;5026;51.494;11.974;2024-02-26T13:50:07;11.40;99.20
9971;DHT22;5026;51.494;11.974;2024-02-26T13:52:34;11.30;99.20
9971;DHT22;5026;51.494;11.974;2024-02-26T13:55:01;11.20;99.40
9971;DHT22;5026;51.494;11.974;2024-02-26T13:57:28;11.20;99.50
9971;DHT22;5026;51.494;11.974;2024-02-26T13:59:57;11.20;99.70
9971;DHT22;5026;51.494;11.974;2024-02-26T14:02:24;11.20;99.70
9971;DHT22;5026;51.494;11.974;2024-02-26T14:04:51;11.10;99.60
9971;DHT22;5026;51.494;11.974;2024-02-26T14:07:18;11.20;99.80
9971;DHT22;5026;51.494;11.974;2024-02-26T14:09:45;11.20;99.70
9971;DHT22;5026;51.494;11.974;2024-02-26T14:12:12;11.10;99.70
9971;DHT22;5026;51.494;11.974;2024-02-26T14:14:39;11.00;99.90
9971;DHT22;5026;51.494;11.974;2024-02-26T14:17:09;11.10;99.90
9971;DHT22;5026;51.494;11.974;2024-02-26T14:19:37;11.00;99.90
9971;DHT22;5026;51.494;11.974;2024-02-26T14:22:05;11.00;99.90
9971;DHT22;5026;51.494;11.974;2024-02-26T14:24:32;11.00;99.90
9971;DHT22;5026;51.494;11.974;2024-02-26T14:26:59;11.00;99.90
9971;DHT22;5026;51.494;11.974;2024-02-26T14:29:26;11.10;99.90
9971;DHT22;5026;51.494;11.974;2024-02-26T14:31:52;11.10;99.90
9971;DHT22;5026;51.494;11.974;2024-02-26T14:34:23;11.10;99.90
9971;DHT22;5026;51.494;11.974;2024-02-26T14:36:50;10.90;99.90
9971;DHT22;5026;51.494;11.974;2024-02-26T14:39:17;10.90;99.90
9971;DHT22;5026;51.494;11.974;2024-02-26T14:41:44;10.80;99.90
9971;DHT22;5026;51.494;11.974;2024-02-26T14:44:12;10.80;99.90
9971;DHT22;5026;51.494;11.974;2024-02-26T14:46:39;10.80;99.90
9971;DHT22;5026;51.494;11.974;2024-02-26T14:49:06;10.90;99.90
9971;DHT22;5026;51.494;11.974;2024-02-26T14:51:34;10.90;99.90
9971;DHT22;5026;51.494;11.974;2024-02-26T14:54:01;10.90;99.90
9971;DHT22;5026;51.494;11.974;2024-02-26T14:56:28;10.80;99.90
9971;DHT22;5026;51.494;11.974;2024-02-26T14:58:55;10.70;99.90
9971;DHT22;5026;51.494;11.974;2024-02-26T15:01:23;10.70;99.90
9971;DHT22;5026;51.494;11.974;2024-02-26T15:03:50;10.70;99.90
9971;DHT22;5026;51.494;11.974;2024-02-26T15:06:18;10.70;99.90
9971;DHT22;5026;51.494;11.974;2024-02-26T15:08:47;10.70;99.90
9971;DHT22;5026;51.494;11.974;2024-02-26T15:11:14;10.60;99.90
9971;DHT22;5026;51.494;11.974;2024-02-26T15:13:41;10.60;99.90
9971;DHT22;5026;51.494;11.974;2024-02-26T15:16:08;10.70;99.90
9971;DHT22;5026;51.494;11.974;2024-02-26T15:18:37;10.50;99.90
9971;DHT22;5026;51.494;11.974;2024-02-26T15:21:04;10.50;99.90
9971;DHT22;5026;51.494;11.974;2024-02-26T15:23:32;10.50;99.90
9971;DHT22;5026;51.494;11.974;2024-02-26T15:26:02;10.50;99.90
9971;DHT22;5026;51.494;11.974;2024-02-26T15:28:29;10.50;99.90
9971;DHT22;5026;51.494;11.974;2024-02-26T15:30:56;10.50;99.90
9971;DHT22;5026;51.494;11.974;2024-02-26T15:33:23;10.50;99.90
9971;DHT22;5026;51.494;11.974;2024-02-26T15:35:51;10.40;99.90
9971;DHT22;5026;51.494;11.974;2024-02-26T15:38:18;10.40;99.90
9971;DHT22;5026;51.494;11.974;2024-02-26T15:40:44;10.50;99.90
9971;DHT22;5026;51.494;11.974;2024-02-26T15:43:14;10.40;99.90
9971;DHT22;5026;51.494;11.974;2024-02-26T15:45:41;10.40;99.90
9971;DHT22;5026;51.494;11.974;2024-02-26T15:48:08;10.40;99.90
9971;DHT22;5026;51.494;11.974;2024-02-26T15:50:35;10.30;99.90
9971;DHT22;5026;51.494;11.974;2024-02-26T15:53:06;10.40;99.90
9971;DHT22;5026;51.494;11.974;2024-02-26T15:55:34;10.40;99.90
9971;DHT22;5026;51.494;11.974;2024-02-26T15:58:01;10.40;99.90
9971;DHT22;5026;51.494;11.974;2024-02-26T16:00:29;10.40;99.90
9971;DHT22;5026;51.494;11.974;2024-02-26T16:02:56;10.30;99.90